createdAt,value
2022-08-29T00:00:41.573Z,98312.66
2022-08-29T00:02:44.565Z,98312.66
2022-08-29T00:04:48.107Z,98311.97
2022-08-29T00:06:51.164Z,98307.66
2022-08-29T00:08:54.203Z,98306.47
2022-08-29T00:10:58.564Z,98315.00
2022-08-29T00:13:02.055Z,98311.66
2022-08-29T00:15:06.216Z,98309.16
2022-08-29T00:17:09.160Z,98310.69
2022-08-29T00:19:12.272Z,98309.16
2022-08-29T00:21:15.365Z,98313.63
2022-08-29T00:23:18.493Z,98310.97
2022-08-29T00:25:21.959Z,98315.59
2022-08-29T00:27:26.429Z,98316.84
2022-08-29T00:29:29.944Z,98311.56
2022-08-29T00:31:33.133Z,98310.03
2022-08-29T00:33:36.672Z,98306.88
2022-08-29T00:35:44.030Z,98313.97
2022-08-29T00:37:48.560Z,98318.41
2022-08-29T00:39:51.704Z,98315.75
2022-08-29T00:41:55.259Z,98319.09
2022-08-29T00:43:59.778Z,98316.75
2022-08-29T00:46:10.866Z,98312.44
2022-08-29T00:48:15.932Z,98312.88
2022-08-29T00:50:24.678Z,98309.44
2022-08-29T00:52:32.498Z,98314.84
2022-08-29T00:54:36.090Z,98323.75
2022-08-29T00:56:39.629Z,98321.53
2022-08-29T00:58:45.561Z,98325.47
2022-08-29T01:00:50.431Z,98326.59
2022-08-29T01:02:54.338Z,98321.44
2022-08-29T01:04:57.872Z,98331.63
2022-08-29T01:07:01.263Z,98330.91
2022-08-29T01:09:04.945Z,98329.25
2022-08-29T01:11:26.241Z,98330.22
2022-08-29T01:13:34.968Z,98326.19
2022-08-29T01:15:40.036Z,98328.81
2022-08-29T01:17:47.140Z,98334.09
2022-08-29T01:19:57.056Z,98338.56
2022-08-29T01:22:04.604Z,98327.31
2022-08-29T01:24:12.748Z,98340.66
2022-08-29T01:26:17.147Z,98333.03
2022-08-29T01:28:23.267Z,98331.66
2022-08-29T01:30:26.369Z,98333.47
2022-08-29T01:32:29.424Z,98333.59
2022-08-29T01:34:32.726Z,98328.91
2022-08-29T01:36:40.490Z,98334.47
2022-08-29T01:38:43.906Z,98321.56
2022-08-29T01:40:46.903Z,98331.59
2022-08-29T01:42:51.263Z,98337.69
2022-08-29T01:44:56.277Z,98331.72
2022-08-29T01:47:03.185Z,98341.00
2022-08-29T01:49:10.071Z,98334.06
2022-08-29T01:51:14.160Z,98331.44
2022-08-29T01:53:17.369Z,98329.63
2022-08-29T01:55:20.371Z,98332.41
2022-08-29T01:57:23.338Z,98337.00
2022-08-29T01:59:29.043Z,98336.28
2022-08-29T02:01:35.405Z,98331.28
2022-08-29T02:03:38.464Z,98342.00
2022-08-29T02:05:41.557Z,98338.69
2022-08-29T02:07:44.560Z,98335.50
2022-08-29T02:09:47.942Z,98336.75
2022-08-29T02:11:52.467Z,98331.47
2022-08-29T02:13:58.668Z,98342.84
2022-08-29T02:16:03.352Z,98342.97
2022-08-29T02:18:06.460Z,98339.66
2022-08-29T02:20:10.632Z,98332.03
2022-08-29T02:22:13.911Z,98341.22
2022-08-29T02:24:26.306Z,98340.78
2022-08-29T02:26:29.553Z,98343.16
2022-08-29T02:28:33.416Z,98337.63
2022-08-29T02:30:36.373Z,98345.69
2022-08-29T02:32:40.730Z,98352.06
2022-08-29T02:34:47.617Z,98349.56
2022-08-29T02:36:51.860Z,98350.66
2022-08-29T02:38:54.876Z,98350.53
2022-08-29T02:40:58.160Z,98346.91
2022-08-29T02:43:01.669Z,98350.66
2022-08-29T02:45:05.748Z,98353.44
2022-08-29T02:47:09.315Z,98344.41
2022-08-29T02:49:13.853Z,98336.22
2022-08-29T02:51:21.157Z,98327.88
2022-08-29T02:53:27.060Z,98338.84
2022-08-29T02:55:30.256Z,98333.97
2022-08-29T02:57:33.260Z,98333.28
2022-08-29T02:59:36.364Z,98335.25
2022-08-29T03:01:39.510Z,98333.84
2022-08-29T03:03:42.899Z,98335.94
2022-08-29T03:05:47.727Z,98330.22
2022-08-29T03:07:52.195Z,98338.13
2022-08-29T03:09:55.169Z,98332.84
2022-08-29T03:11:58.161Z,98335.47
2022-08-29T03:14:01.396Z,98328.00
2022-08-29T03:16:06.000Z,98333.56
2022-08-29T03:18:09.325Z,98323.97
2022-08-29T03:20:13.881Z,98327.44
2022-08-29T03:22:18.486Z,98323.97
2022-08-29T03:24:26.274Z,98330.22
2022-08-29T03:26:30.127Z,98329.53
2022-08-29T03:28:33.162Z,98335.06
2022-08-29T03:30:36.847Z,98325.34
2022-08-29T03:32:40.530Z,98318.44
2022-08-29T03:34:43.773Z,98333.38
2022-08-29T03:36:46.748Z,98323.69
2022-08-29T03:38:51.075Z,98316.50
2022-08-29T03:40:55.671Z,98326.19
2022-08-29T03:43:03.237Z,98327.97
2022-08-29T03:45:08.408Z,98328.38
2022-08-29T03:47:11.355Z,98325.19
2022-08-29T03:49:15.527Z,98331.56
2022-08-29T03:51:19.535Z,98330.88
2022-08-29T03:53:22.586Z,98333.50
2022-08-29T03:55:27.213Z,98334.47
2022-08-29T03:57:33.060Z,98335.31
2022-08-29T03:59:36.059Z,98339.72
2022-08-29T04:01:39.307Z,98337.09
2022-08-29T04:03:42.716Z,98336.28
2022-08-29T04:05:45.767Z,98342.63
2022-08-29T04:07:56.069Z,98345.28
2022-08-29T04:09:59.338Z,98341.13
2022-08-29T04:12:04.351Z,98344.84
2022-08-29T04:14:07.295Z,98344.03
2022-08-29T04:16:11.205Z,98347.63
2022-08-29T04:18:15.645Z,98348.56
2022-08-29T04:20:25.881Z,98350.38
2022-08-29T04:22:28.970Z,98358.41
2022-08-29T04:24:32.392Z,98356.88
2022-08-29T04:26:37.650Z,98350.09
2022-08-29T04:28:42.222Z,98354.66
2022-08-29T04:30:51.271Z,98361.84
2022-08-29T04:32:55.042Z,98369.06
2022-08-29T04:34:58.403Z,98363.22
2022-08-29T04:37:01.395Z,98369.31
2022-08-29T04:39:05.676Z,98367.50
2022-08-29T04:41:10.560Z,98370.28
2022-08-29T04:43:13.489Z,98363.50
2022-08-29T04:45:19.936Z,98364.31
2022-08-29T04:47:22.940Z,98363.38
2022-08-29T04:49:26.003Z,98370.28
2022-08-29T04:51:29.951Z,98374.72
2022-08-29T04:53:32.936Z,98372.78
2022-08-29T04:55:35.925Z,98371.81
2022-08-29T04:57:40.077Z,98373.31
2022-08-29T04:59:43.038Z,98372.72
2022-08-29T05:01:47.491Z,98379.06
2022-08-29T05:03:52.060Z,98377.16
2022-08-29T05:05:57.773Z,98368.41
2022-08-29T05:08:00.792Z,98376.03
2022-08-29T05:10:07.268Z,98379.84
2022-08-29T05:12:10.649Z,98375.31
2022-08-29T05:14:13.826Z,98375.91
2022-08-29T05:16:18.500Z,98382.47
2022-08-29T05:18:23.364Z,98382.78
2022-08-29T05:20:26.368Z,98392.66
2022-08-29T05:22:29.356Z,98382.41
2022-08-29T05:24:32.400Z,98400.47
2022-08-29T05:26:38.412Z,98390.38
2022-08-29T05:28:41.490Z,98404.78
2022-08-29T05:30:44.496Z,98395.63
2022-08-29T05:32:47.525Z,98397.81
2022-08-29T05:34:52.269Z,98398.19
2022-08-29T05:36:55.311Z,98403.31
2022-08-29T05:38:58.377Z,98407.63
2022-08-29T05:41:02.229Z,98408.56
2022-08-29T05:43:05.412Z,98405.44
2022-08-29T05:45:09.934Z,98413.06
2022-08-29T05:47:14.872Z,98412.56
2022-08-29T05:49:17.943Z,98409.94
2022-08-29T05:51:24.212Z,98414.63
2022-08-29T05:53:27.904Z,98416.06
2022-08-29T05:55:31.211Z,98410.94
2022-08-29T05:57:34.247Z,98417.69
2022-08-29T05:59:38.246Z,98416.47
2022-08-29T06:01:41.379Z,98414.72
2022-08-29T06:03:46.134Z,98424.94
2022-08-29T06:05:51.780Z,98429.56
2022-08-29T06:07:56.120Z,98419.22
2022-08-29T06:10:04.031Z,98435.09
2022-08-29T06:12:07.956Z,98428.22
2022-08-29T06:14:10.913Z,98439.22
2022-08-29T06:16:15.053Z,98438.81
2022-08-29T06:18:18.098Z,98444.03
2022-08-29T06:20:26.013Z,98440.09
2022-08-29T06:22:28.959Z,98447.44
2022-08-29T06:24:34.194Z,98447.00
2022-08-29T06:26:37.385Z,98453.50
2022-08-29T06:28:41.847Z,98454.03
2022-08-29T06:30:44.894Z,98456.09
2022-08-29T06:32:47.886Z,98452.78
2022-08-29T06:34:51.057Z,98462.09
2022-08-29T06:36:54.040Z,98462.25
2022-08-29T06:38:57.680Z,98470.91
2022-08-29T06:41:04.964Z,98466.59
2022-08-29T06:43:07.968Z,98474.06
2022-08-29T06:45:11.864Z,98468.91
2022-08-29T06:47:14.847Z,98466.75
2022-08-29T06:49:19.312Z,98467.38
2022-08-29T06:51:22.965Z,98476.31
2022-08-29T06:53:31.934Z,98478.31
2022-08-29T06:55:36.044Z,98475.63
2022-08-29T06:57:44.371Z,98476.59
2022-08-29T06:59:47.385Z,98467.59
2022-08-29T07:01:50.512Z,98471.00
2022-08-29T07:03:54.463Z,98476.09
2022-08-29T07:05:57.480Z,98478.19
2022-08-29T07:08:00.503Z,98486.63
2022-08-29T07:10:03.520Z,98481.09
2022-08-29T07:12:07.438Z,98475.88
2022-08-29T07:14:12.689Z,98480.16
2022-08-29T07:16:18.696Z,98478.03
2022-08-29T07:18:22.188Z,98480.00
2022-08-29T07:20:25.214Z,98480.84
2022-08-29T07:22:28.219Z,98477.81
2022-08-29T07:24:31.221Z,98468.53
2022-08-29T07:26:38.695Z,98476.56
2022-08-29T07:28:46.054Z,98476.56
2022-08-29T07:30:51.805Z,98472.13
2022-08-29T07:32:55.017Z,98473.13
2022-08-29T07:34:58.108Z,98477.53
2022-08-29T07:37:01.131Z,98476.28
2022-08-29T07:39:07.476Z,98471.50
2022-08-29T07:41:14.254Z,98477.81
2022-08-29T07:43:20.126Z,98479.34
2022-08-29T07:45:24.536Z,98479.59
2022-08-29T07:47:28.979Z,98480.69
2022-08-29T07:49:40.995Z,98489.97
2022-08-29T07:51:44.937Z,98480.53
2022-08-29T07:53:48.061Z,98475.06
2022-08-29T07:55:51.234Z,98479.28
2022-08-29T07:57:54.344Z,98484.09
2022-08-29T07:59:57.578Z,98483.75
2022-08-29T08:02:00.735Z,98481.06
2022-08-29T08:04:05.664Z,98478.91
2022-08-29T08:06:10.890Z,98482.66
2022-08-29T08:08:14.928Z,98474.25
2022-08-29T08:10:20.276Z,98481.91
2022-08-29T08:12:25.734Z,98484.88
2022-08-29T08:14:34.874Z,98485.38
2022-08-29T08:16:38.708Z,98483.09
2022-08-29T08:18:48.251Z,98486.38
2022-08-29T08:20:53.307Z,98483.56
2022-08-29T08:22:56.378Z,98485.69
2022-08-29T08:24:59.417Z,98474.41
2022-08-29T08:27:02.717Z,98477.94
2022-08-29T08:29:05.748Z,98483.94
2022-08-29T08:31:10.617Z,98488.09
2022-08-29T08:33:13.863Z,98485.66
2022-08-29T08:35:22.597Z,98481.97
2022-08-29T08:37:27.881Z,98490.06
2022-08-29T08:39:33.564Z,98486.34
2022-08-29T08:41:46.082Z,98491.31
2022-08-29T08:43:51.752Z,98490.69
2022-08-29T08:45:56.561Z,98489.88
2022-08-29T08:48:04.955Z,98490.53
2022-08-29T08:50:13.764Z,98491.41
2022-08-29T08:52:20.551Z,98489.16
2022-08-29T08:54:26.862Z,98492.88
2022-08-29T08:56:33.590Z,98485.25
2022-08-29T08:58:44.480Z,98490.03
2022-08-29T09:00:50.660Z,98487.53
2022-08-29T09:03:03.632Z,98485.66
2022-08-29T09:05:33.120Z,98487.94
2022-08-29T09:07:46.654Z,98480.31
2022-08-29T09:10:02.430Z,98484.63
2022-08-29T09:12:17.047Z,98481.75
2022-08-29T09:14:33.630Z,98475.97
2022-08-29T09:16:40.950Z,98484.63
2022-08-29T09:18:49.893Z,98485.50
2022-08-29T09:20:58.014Z,98487.72
2022-08-29T09:23:03.769Z,98480.06
2022-08-29T09:25:10.687Z,98482.31
2022-08-29T09:27:19.228Z,98469.28
2022-08-29T09:29:22.365Z,98483.53
2022-08-29T09:31:28.086Z,98480.03
2022-08-29T09:33:41.481Z,98479.66
2022-08-29T09:35:49.054Z,98484.81
2022-08-29T09:38:03.612Z,98474.06
2022-08-29T09:40:12.481Z,98477.97
2022-08-29T09:42:22.990Z,98474.47
2022-08-29T09:44:28.382Z,98468.03
2022-08-29T09:46:31.600Z,98466.22
2022-08-29T09:48:35.872Z,98464.75
2022-08-29T09:50:39.026Z,98459.97
2022-08-29T09:52:52.646Z,98459.75
2022-08-29T09:54:55.935Z,98467.56
2022-08-29T09:57:05.025Z,98471.88
2022-08-29T09:59:14.360Z,98466.25
2022-08-29T10:01:28.274Z,98462.53
2022-08-29T10:03:36.189Z,98461.22
2022-08-29T10:05:44.318Z,98460.34
2022-08-29T10:07:49.743Z,98459.28
2022-08-29T10:10:15.221Z,98459.84
2022-08-29T10:12:26.425Z,98457.38
2022-08-29T10:14:32.362Z,98461.78
2022-08-29T10:16:41.321Z,98458.88
2022-08-29T10:18:46.116Z,98453.38
2022-08-29T10:20:54.298Z,98456.84
2022-08-29T10:23:03.776Z,98453.97
2022-08-29T10:25:10.646Z,98460.63
2022-08-29T10:27:28.139Z,98459.13
2022-08-29T10:29:52.088Z,98467.09
2022-08-29T10:32:03.573Z,98462.53
2022-08-29T10:34:18.264Z,98467.88
2022-08-29T10:36:24.492Z,98461.03
2022-08-29T10:38:45.329Z,98466.75
2022-08-29T10:40:50.422Z,98465.66
2022-08-29T10:43:07.777Z,98469.28
2022-08-29T10:45:18.355Z,98457.34
2022-08-29T10:47:27.599Z,98459.19
2022-08-29T10:49:45.025Z,98458.59
2022-08-29T10:51:56.090Z,98459.59
2022-08-29T10:54:03.339Z,98452.31
2022-08-29T10:56:12.092Z,98453.59
2022-08-29T10:58:32.415Z,98451.41
2022-08-29T11:00:40.971Z,98449.53
2022-08-29T11:02:50.294Z,98445.41
2022-08-29T11:04:56.743Z,98452.63
2022-08-29T11:07:04.318Z,98446.41
2022-08-29T11:09:11.053Z,98440.44
2022-08-29T11:11:16.799Z,98447.47
2022-08-29T11:13:25.173Z,98442.50
2022-08-29T11:15:33.051Z,98445.19
2022-08-29T11:17:40.740Z,98436.09
2022-08-29T11:19:51.921Z,98427.63
2022-08-29T11:21:57.675Z,98429.06
2022-08-29T11:24:04.072Z,98430.94
2022-08-29T11:26:13.006Z,98426.78
2022-08-29T11:28:24.121Z,98429.47
2022-08-29T11:30:36.325Z,98427.63
2022-08-29T11:32:51.858Z,98428.00
2022-08-29T11:35:05.543Z,98418.63
2022-08-29T11:37:26.331Z,98414.25
2022-08-29T11:39:57.398Z,98423.34
2022-08-29T11:42:04.375Z,98419.25
2022-08-29T11:44:15.510Z,98421.50
2022-08-29T11:46:32.863Z,98419.03
2022-08-29T11:48:39.594Z,98415.50
2022-08-29T11:50:42.861Z,98416.16
2022-08-29T11:52:54.832Z,98415.97
2022-08-29T11:55:39.486Z,98416.22
2022-08-29T11:57:51.233Z,98404.66
2022-08-29T11:59:59.956Z,98409.47
2022-08-29T12:02:03.329Z,98403.28
2022-08-29T12:04:07.989Z,98400.38
2022-08-29T12:06:25.901Z,98403.63
2022-08-29T12:08:37.316Z,98400.78
2022-08-29T12:10:53.600Z,98391.66
2022-08-29T12:12:58.994Z,98399.72
2022-08-29T12:15:03.545Z,98391.66
2022-08-29T12:17:08.703Z,98393.69
2022-08-29T12:19:11.699Z,98393.72
2022-08-29T12:21:48.584Z,98394.56
2022-08-29T12:23:51.717Z,98398.50
2022-08-29T12:26:15.863Z,98389.22
2022-08-29T12:28:37.615Z,98386.56
2022-08-29T12:30:44.286Z,98379.72
2022-08-29T12:32:56.560Z,98382.19
2022-08-29T12:35:18.453Z,98382.63
2022-08-29T12:37:45.152Z,98388.59
2022-08-29T12:40:03.089Z,98389.03
2022-08-29T12:42:16.524Z,98380.53
2022-08-29T12:44:23.551Z,98375.16
2022-08-29T12:46:31.008Z,98379.31
2022-08-29T12:48:37.939Z,98369.63
2022-08-29T12:50:44.149Z,98365.28
2022-08-29T12:53:00.260Z,98359.50
2022-08-29T12:55:21.365Z,98373.13
2022-08-29T12:57:27.419Z,98361.34
2022-08-29T12:59:30.904Z,98357.63
2022-08-29T13:01:39.525Z,98357.81
2022-08-29T13:03:42.750Z,98345.81
2022-08-29T13:05:46.138Z,98344.38
2022-08-29T13:07:56.296Z,98342.91
2022-08-29T13:10:00.614Z,98343.72
2022-08-29T13:12:11.818Z,98339.19
2022-08-29T13:14:14.858Z,98333.63
2022-08-29T13:16:27.496Z,98335.47
2022-08-29T13:18:40.486Z,98338.56
2022-08-29T13:21:13.139Z,98335.78
2022-08-29T13:23:23.368Z,98337.41
2022-08-29T13:25:26.405Z,98334.88
2022-08-29T13:27:29.541Z,98332.41
2022-08-29T13:29:36.467Z,98324.75
2022-08-29T13:31:40.533Z,98331.59
2022-08-29T13:34:17.789Z,98326.22
2022-08-29T13:36:31.451Z,98324.38
2022-08-29T13:38:34.979Z,98323.75
2022-08-29T13:40:43.847Z,98314.72
2022-08-29T13:42:46.957Z,98323.63
2022-08-29T13:45:23.793Z,98327.19
2022-08-29T13:47:29.265Z,98321.00
2022-08-29T13:49:35.472Z,98322.44
2022-08-29T13:51:38.528Z,98326.63
2022-08-29T13:53:44.791Z,98324.38
2022-08-29T13:55:48.856Z,98323.16
2022-08-29T13:57:54.576Z,98314.47
2022-08-29T13:59:58.387Z,98321.53
2022-08-29T14:02:10.648Z,98316.97
2022-08-29T14:04:37.012Z,98326.66
2022-08-29T14:06:39.455Z,98324.81
2022-08-29T14:08:45.356Z,98311.59
2022-08-29T14:10:48.692Z,98310.97
2022-08-29T14:12:51.856Z,98319.47
2022-08-29T14:14:54.904Z,98318.63
2022-08-29T14:16:58.634Z,98320.69
2022-08-29T14:19:01.659Z,98318.84
2022-08-29T14:21:04.881Z,98316.56
2022-08-29T14:23:09.286Z,98309.94
2022-08-29T14:25:13.915Z,98312.84
2022-08-29T14:27:16.950Z,98309.13
2022-08-29T14:29:20.131Z,98310.59
2022-08-29T14:31:23.329Z,98304.16
2022-08-29T14:33:26.409Z,98303.94
2022-08-29T14:35:32.066Z,98305.81
2022-08-29T14:37:35.273Z,98297.56
2022-08-29T14:39:40.250Z,98295.69
2022-08-29T14:41:43.490Z,98302.91
2022-08-29T14:43:46.529Z,98304.13
2022-08-29T14:45:49.601Z,98292.34
2022-08-29T14:47:52.801Z,98297.03
2022-08-29T14:49:55.854Z,98289.84
2022-08-29T14:51:58.939Z,98294.97
2022-08-29T14:54:01.941Z,98292.28
2022-08-29T14:56:06.850Z,98294.28
2022-08-29T14:58:09.848Z,98293.63
2022-08-29T15:00:15.907Z,98288.06
2022-08-29T15:02:20.022Z,98284.28
2022-08-29T15:04:35.866Z,98286.50
2022-08-29T15:06:42.130Z,98287.91
2022-08-29T15:08:45.270Z,98286.03
2022-08-29T15:10:48.273Z,98294.72
2022-08-29T15:12:58.311Z,98288.72
2022-08-29T15:15:01.356Z,98291.66
2022-08-29T15:17:07.906Z,98285.31
2022-08-29T15:21:34.377Z,98279.56
2022-08-29T15:23:37.667Z,98274.88
2022-08-29T15:25:45.146Z,98272.63
2022-08-29T15:27:56.549Z,98273.84
2022-08-29T15:30:00.145Z,98264.34
2022-08-29T15:32:03.543Z,98270.78
2022-08-29T15:34:06.548Z,98268.09
2022-08-29T15:36:10.186Z,98267.72
2022-08-29T15:38:13.210Z,98264.81
2022-08-29T15:40:16.607Z,98267.13
2022-08-29T15:42:24.109Z,98266.34
2022-08-29T15:44:29.647Z,98254.19
2022-08-29T15:46:33.727Z,98263.03
2022-08-29T15:48:42.309Z,98256.66
2022-08-29T15:50:45.442Z,98250.69
2022-08-29T15:52:48.455Z,98248.22
2022-08-29T15:54:52.259Z,98241.84
2022-08-29T15:56:55.523Z,98246.78
2022-08-29T15:58:58.564Z,98234.84
2022-08-29T16:01:04.445Z,98231.53
2022-08-29T16:03:07.836Z,98229.91
2022-08-29T16:05:13.360Z,98233.59
2022-08-29T16:07:17.843Z,98232.34
2022-08-29T16:09:21.761Z,98231.16
2022-08-29T16:11:24.868Z,98235.25
2022-08-29T16:13:28.083Z,98237.13
2022-08-29T16:15:33.998Z,98239.38
2022-08-29T16:17:39.151Z,98236.69
2022-08-29T16:19:42.664Z,98246.41
2022-08-29T16:21:45.997Z,98242.72
2022-08-29T16:23:49.451Z,98242.72
2022-08-29T16:25:52.466Z,98238.56
2022-08-29T16:27:57.196Z,98232.41
2022-08-29T16:30:01.372Z,98236.09
2022-08-29T16:32:05.785Z,98232.41
2022-08-29T16:34:10.209Z,98231.97
2022-08-29T16:36:18.432Z,98235.50
2022-08-29T16:38:21.861Z,98225.56
2022-08-29T16:40:25.191Z,98231.53
2022-08-29T16:42:30.596Z,98217.75
2022-08-29T16:44:36.820Z,98238.97
2022-08-29T16:46:39.955Z,98220.81
2022-08-29T16:48:43.386Z,98222.69
2022-08-29T16:50:48.307Z,98229.91
2022-08-29T16:52:51.450Z,98212.97
2022-08-29T16:54:54.599Z,98217.94
2022-08-29T16:56:57.996Z,98220.00
2022-08-29T16:59:00.324Z,98214.25
2022-08-29T17:01:03.700Z,98216.06
2022-08-29T17:03:07.119Z,98217.53
2022-08-29T17:05:12.652Z,98219.81
2022-08-29T17:07:19.850Z,98218.78
2022-08-29T17:09:23.016Z,98211.56
2022-08-29T17:11:25.169Z,98216.72
2022-08-29T17:13:27.122Z,98213.63
2022-08-29T17:15:29.008Z,98210.28
2022-08-29T17:17:32.475Z,98214.44
2022-08-29T17:19:35.498Z,98208.66
2022-08-29T17:21:39.004Z,98219.59
2022-08-29T17:23:44.179Z,98216.91
2022-08-29T17:25:47.241Z,98216.47
2022-08-29T17:28:14.136Z,98215.44
2022-08-29T17:30:14.460Z,98207.81
2022-08-29T17:32:21.160Z,98210.47
2022-08-29T17:34:24.441Z,98213.56
2022-08-29T17:36:27.461Z,98209.22
2022-08-29T17:38:31.073Z,98223.41
2022-08-29T17:40:35.844Z,98225.63
2022-08-29T17:42:38.923Z,98217.41
2022-08-29T17:44:41.901Z,98219.00
2022-08-29T17:46:45.425Z,98221.28
2022-08-29T17:48:48.465Z,98223.50
2022-08-29T17:50:52.407Z,98217.53
2022-08-29T17:52:55.411Z,98221.88
2022-08-29T17:54:58.669Z,98215.88
2022-08-29T17:57:03.484Z,98220.41
2022-08-29T17:59:06.557Z,98225.16
2022-08-29T18:01:15.718Z,98224.69
2022-08-29T18:03:19.496Z,98228.41
2022-08-29T18:05:22.515Z,98223.00
2022-08-29T18:07:25.557Z,98223.41
2022-08-29T18:09:31.411Z,98234.47
2022-08-29T18:11:38.953Z,98239.59
2022-08-29T18:13:43.877Z,98242.28
2022-08-29T18:15:47.599Z,98243.47
2022-08-29T18:17:53.833Z,98243.25
2022-08-29T18:19:56.844Z,98243.84
2022-08-29T18:22:00.042Z,98239.88
2022-08-29T18:24:03.648Z,98244.81
2022-08-29T18:26:09.434Z,98251.97
2022-08-29T18:28:12.511Z,98249.63
2022-08-29T18:30:17.057Z,98252.28
2022-08-29T18:32:20.711Z,98249.38
2022-08-29T18:34:25.796Z,98255.25
2022-08-29T18:36:28.983Z,98254.19
2022-08-29T18:38:32.108Z,98249.22
2022-08-29T18:40:39.335Z,98251.47
2022-08-29T18:42:42.791Z,98260.69
2022-08-29T18:44:45.921Z,98254.06
2022-08-29T18:46:50.548Z,98256.31
2022-08-29T18:48:53.938Z,98258.72
2022-08-29T18:50:57.896Z,98263.00
2022-08-29T18:53:01.038Z,98273.25
2022-08-29T18:55:04.643Z,98274.81
2022-08-29T18:57:09.166Z,98277.25
2022-08-29T18:59:12.483Z,98282.97
2022-08-29T19:01:26.939Z,98286.22
2022-08-29T19:03:32.535Z,98287.78
2022-08-29T19:05:36.514Z,98293.03
2022-08-29T19:07:39.758Z,98287.25
2022-08-29T19:09:43.503Z,98286.81
2022-08-29T19:11:46.752Z,98283.66
2022-08-29T19:13:52.552Z,98284.22
2022-08-29T19:15:57.724Z,98298.81
2022-08-29T19:18:01.013Z,98292.38
2022-08-29T19:20:27.443Z,98291.44
2022-08-29T19:22:30.698Z,98288.91
2022-08-29T19:24:33.920Z,98292.50
2022-08-29T19:26:38.825Z,98296.56
2022-08-29T19:28:42.509Z,98297.94
2022-08-29T19:30:46.314Z,98297.69
2022-08-29T19:32:49.347Z,98292.22
2022-08-29T19:34:53.467Z,98291.75
2022-08-29T19:36:57.778Z,98296.28
2022-08-29T19:39:00.807Z,98294.97
2022-08-29T19:41:05.488Z,98292.22
2022-08-29T19:43:14.210Z,98294.44
2022-08-29T19:45:19.198Z,98291.09
2022-08-29T19:47:22.210Z,98288.19
2022-08-29T19:49:25.256Z,98297.16
2022-08-29T19:51:32.566Z,98294.06
2022-08-29T19:53:37.531Z,98295.41
2022-08-29T19:55:40.608Z,98302.78
2022-08-29T19:57:44.029Z,98301.97
2022-08-29T19:59:47.313Z,98305.81
2022-08-29T20:01:51.870Z,98305.19
2022-08-29T20:03:55.305Z,98289.91
2022-08-29T20:05:59.561Z,98297.41
2022-08-29T20:08:03.248Z,98294.47
2022-08-29T20:10:09.636Z,98297.34
2022-08-29T20:12:12.649Z,98305.50
2022-08-29T20:14:16.769Z,98304.06
2022-08-29T20:16:22.199Z,98301.75
2022-08-29T20:18:25.352Z,98313.94
2022-08-29T20:20:31.995Z,98312.78
2022-08-29T20:22:35.142Z,98314.16
2022-08-29T20:24:38.261Z,98318.00
2022-08-29T20:26:42.722Z,98323.22
2022-08-29T20:28:45.797Z,98317.78
2022-08-29T20:30:49.891Z,98316.50
2022-08-29T20:32:53.595Z,98314.00
2022-08-29T20:34:57.137Z,98309.03
2022-08-29T20:37:14.031Z,98323.34
2022-08-29T20:39:20.217Z,98318.44
2022-08-29T20:41:23.269Z,98319.31
2022-08-29T20:43:28.584Z,98318.34
2022-08-29T20:45:31.613Z,98326.88
2022-08-29T20:47:34.631Z,98323.28
2022-08-29T20:49:37.696Z,98328.28
2022-08-29T20:51:43.991Z,98324.28
2022-08-29T20:53:47.078Z,98327.31
2022-08-29T20:55:50.065Z,98320.84
2022-08-29T20:57:54.793Z,98332.69
2022-08-29T20:59:59.369Z,98335.34
2022-08-29T21:02:02.986Z,98333.66
2022-08-29T21:04:24.465Z,98333.03
2022-08-29T21:06:28.231Z,98336.84
2022-08-29T21:08:33.008Z,98325.72
2022-08-29T21:10:37.235Z,98332.38
2022-08-29T21:12:40.313Z,98342.72
2022-08-29T21:14:43.664Z,98340.25
2022-08-29T21:16:48.050Z,98338.09
2022-08-29T21:18:52.558Z,98339.09
2022-08-29T21:20:55.611Z,98342.94
2022-08-29T21:23:00.654Z,98347.75
2022-08-29T21:25:03.721Z,98350.09
2022-08-29T21:27:07.156Z,98349.13
2022-08-29T21:29:10.455Z,98342.69
2022-08-29T21:31:15.407Z,98353.47
2022-08-29T21:33:20.660Z,98345.19
2022-08-29T21:35:24.464Z,98352.16
2022-08-29T21:37:27.926Z,98347.66
2022-08-29T21:39:31.439Z,98354.66
2022-08-29T21:41:37.703Z,98352.84
2022-08-29T21:43:40.719Z,98350.69
2022-08-29T21:45:44.898Z,98351.84
2022-08-29T21:47:49.695Z,98357.16
2022-08-29T21:49:54.109Z,98349.38
2022-08-29T21:51:57.343Z,98355.81
2022-08-29T21:54:00.788Z,98353.34
2022-08-29T21:56:04.335Z,98349.22
2022-08-29T21:58:08.005Z,98350.19
2022-08-29T22:00:12.488Z,98348.72
2022-08-29T22:02:17.501Z,98346.41
2022-08-29T22:04:28.414Z,98346.56
2022-08-29T22:06:36.986Z,98351.19
2022-08-29T22:08:40.019Z,98343.41
2022-08-29T22:10:49.222Z,98348.88
2022-08-29T22:12:52.883Z,98342.91
2022-08-29T22:15:13.345Z,98346.56
2022-08-29T22:17:16.831Z,98340.59
2022-08-29T22:19:21.013Z,98344.41
2022-08-29T22:21:24.605Z,98343.25
2022-08-29T22:23:29.627Z,98339.91
2022-08-29T22:25:32.717Z,98333.97
2022-08-29T22:27:35.774Z,98330.66
2022-08-29T22:29:38.969Z,98336.78
2022-08-29T22:31:42.947Z,98337.91
2022-08-29T22:33:46.309Z,98338.22
2022-08-29T22:35:49.386Z,98342.25
2022-08-29T22:37:54.409Z,98341.53
2022-08-29T22:39:59.066Z,98346.03
2022-08-29T22:42:02.557Z,98350.53
2022-08-29T22:44:47.122Z,98355.16
2022-08-29T22:46:30.052Z,98344.69
2022-08-29T22:48:33.148Z,98345.72
2022-08-29T22:50:36.183Z,98346.84
2022-08-29T22:52:39.470Z,98351.34
2022-08-29T22:54:42.464Z,98341.22
2022-08-29T22:56:46.940Z,98345.03
2022-08-29T22:58:50.473Z,98345.50
2022-08-29T23:00:53.758Z,98342.38
2022-08-29T23:02:56.907Z,98346.00
2022-08-29T23:05:00.138Z,98342.84
2022-08-29T23:07:03.544Z,98345.50
2022-08-29T23:09:07.104Z,98344.66
2022-08-29T23:11:11.030Z,98337.72
2022-08-29T23:13:15.679Z,98342.16
2022-08-29T23:15:19.588Z,98341.66
2022-08-29T23:17:22.621Z,98341.00
2022-08-29T23:19:25.605Z,98340.34
2022-08-29T23:21:28.946Z,98339.50
2022-08-29T23:23:32.285Z,98335.38
2022-08-29T23:25:35.405Z,98343.66
2022-08-29T23:27:38.926Z,98342.66
2022-08-29T23:29:43.331Z,98349.63
2022-08-29T23:31:46.394Z,98340.47
2022-08-29T23:33:50.229Z,98342.47
2022-08-29T23:35:53.490Z,98344.59
2022-08-29T23:37:56.551Z,98343.91
2022-08-29T23:39:59.986Z,98350.03
2022-08-29T23:42:03.449Z,98345.22
2022-08-29T23:44:06.855Z,98348.34
2022-08-29T23:46:11.665Z,98342.53
2022-08-29T23:48:14.907Z,98342.69
2022-08-29T23:50:18.224Z,98340.66
2022-08-29T23:52:21.265Z,98345.63
2022-08-29T23:54:24.255Z,98338.31
2022-08-29T23:56:30.008Z,98336.97
2022-08-29T23:58:33.076Z,98337.28
